Observations at @or for Latest


KAST 280055Z AUTO 22009KT 10SM FEW018 SCT040 OVC050 13/09 A3000 RMK AO2 CIG 028
 RWY 08 SLP158 T01280094=
KBKE 280053Z AUTO 03005KT 10SM FEW041 BKN065 OVC080 12/09 A2991 RMK AO2 RAE16
 SLP128 P0002 T01220089=
KBNO 280053Z AUTO 28017G27KT 10SM -RA OVC050 12/06 A2996 RMK AO2 PK WND
 27027/0048 SLP142 P0000 T01220061=
KCVO 280056Z AUTO 31007KT 10SM OVC100 16/09 A3000 RMK AO2 SLP160 T01560089=
KDLS 280053Z AUTO 29012KT 10SM BKN120 18/07 A2993 RMK AO2 SLP134 T01830067=
KEUG 280054Z 31006KT 10SM FEW039 OVC090 18/07 A3000 RMK AO2 SLP156 T01780072=
KHIO 280053Z 24004KT 10SM FEW027 BKN035 OVC080 15/09 A2999 RMK AO2 SLP154
 T01500094=
KLGD 280056Z AUTO 02003KT 7SM RA FEW015 BKN027 OVC034 12/11 A2993 RMK AO2
 SLP137 P0017 T01170106=
KLKV 280053Z AUTO 24014G24KT 10SM FEW070 SCT090 BKN110 16/02 A2995 RMK AO2 PK
 WND 20028/0029 SLP132 T01610017=
KLKV 280103Z AUTO 27012G18KT 10SM SCT070 BKN080 BKN100 16/04 A2995 RMK AO2
 WSHFT 0046=
KLMT 280053Z 29012KT 10SM FEW048 SCT060 OVC080 13/06 A2997 RMK AO2 RAE04B32E50
 SLP133 P0000 T01330061=
KMEH 280056Z AUTO VRB03KT 5SM -RA BR BKN007 OVC011 08/07 A2996 RMK AO2 CIG
 005V009 SLP148 P0010 T00780067=
KMFR 280053Z 05005KT 10SM BKN065 OVC110 17/13 A2996 RMK AO2 SLP142 T01720133=
KMMV 280053Z AUTO 24008KT 10SM FEW039 BKN095 OVC110 16/08 A2999 RMK AO2 SLP154
 T01560083=
KONO 280053Z AUTO 04004KT 10SM FEW120 19/13 A2985 RMK AO2 SLP103 T01890128=
KONP 280055Z AUTO 25003KT 10SM OVC075 12/09 A3006 RMK AO2=
KOTH 280056Z 28006KT 10SM OVC110 14/11 A3005 RMK AO2 SLP175 T01390106=
KPDT 280053Z 24011KT 10SM -RA OVC070 13/09 A2995 RMK AO2 SLP136 P0000 T01330089=
KPDX 280053Z 00000KT 10SM OVC050 14/11 A2999 RMK AO2 RAE53 SLP156 P0008
 T01390106=
KRBG 280053Z AUTO 35006KT 10SM SCT070 OVC100 18/08 A2998 RMK AO2 SLP153
 T01830078=
KRDM 280056Z 00000KT 10SM FEW040 SCT055 OVC085 12/06 A2997 RMK AO2 RAE47 SLP142
 P0001 T01170056=
KREO 280052Z AUTO 29010G21KT 17/07 A2990 RMK AO1 PK WND 27038/0013 SLP102
 T01670072=
KSLE 280056Z 27007KT 10SM OVC090 17/08 A2999 RMK AO2 SLP154 T01670078=
KSXT 280056Z AUTO 10SM FEW040 SCT048 OVC075 12/04 A3001 RMK AO2 SLP145
 T01170039=
KTTD 280053Z VRB03KT 8SM -RA SCT038 OVC050 13/11 A3000 RMK AO2 RAB28 SLP157
 P0008 T01330106=
KUAO 280053Z 25004KT 10SM FEW036 SCT095 OVC110 16/08 A3000 RMK AO2 SLP158
 T01610078=